Portada
METAR-TAF:

METAR-TAF

Aeroports :

Brighton, Anglaterra

latitud: 50-50N, longitud: 000-17W, altitud: 2 m

Observació

L'informe es va fer fa 1 hora i 45 minuts, a les 18:50 UTC
Vent 12 kt del Nord/Nord-Oest
Temperatura 14°C
Humitat 100%
Pressió 1011 hPa
Visibilitat: 2500 m
Núvols disperses a una alçada de 500 ft
Cel ennuvolat a una alçada de 700 ft
plugim, boirina

METAR: EGKA 181850Z 34012KT 2500 -DZ BR SCT005 BKN007 14/14 Q1011

Hora: 21:35 (20:35 UTC)

Pronòstic

L'informe es va fer fa 5 hores i 0 minuts, a les 15:35 UTC
Pronòstic vàlid del 18 a les 15 UTC al 18 a les 19 UTC
Vent 12 kt del Nord
Visibilitat 10 km o més
Cel ennuvolat a una alçada de 1500 ft
Temporalment
l' 18 a les 15 UTC al 18 a les 19 UTC
Visibilitat: 6000 m
Cel ennuvolat a una alçada de 400 ft
pluja
Probabilitat 30% :
Temporalment
l' 18 a les 15 UTC al 18 a les 19 UTC
Visibilitat: 1200 m
pluja

TAF: EGKA 181535Z 1815/1819 35012KT 9999 BKN015 TEMPO 1815/1819 6000 RA BKN004 PROB30 TEMPO 1815/1819 1200 +RA

Observacions i pronòstics meteorològics de més de 4000 aeroports (METAR i TAF).

Les estacions disponibles són els punts grocs i vermells al mapa.

Posi el ratolí al punt desitjat per veure el nom de l'estació.

Feu clic per veure les observacions i els pronòstics meteorològics.

Per canviar el mapa: feu clic els botons verds amb una creu de color negre per apropar; al botó verd amb un guió per allunyar la imatge; o en les fletxes verdes per a mapes adjacents.


METAR-TAF: